createdAt,value
2023-03-29T00:01:42.234Z,3.41
2023-03-29T00:04:10.172Z,3.41
2023-03-29T00:06:37.807Z,3.39
2023-03-29T00:09:05.909Z,3.44
2023-03-29T00:11:32.561Z,3.42
2023-03-29T00:14:01.567Z,3.43
2023-03-29T00:16:28.160Z,3.44
2023-03-29T00:18:55.366Z,3.51
2023-03-29T00:21:21.846Z,3.43
2023-03-29T00:23:51.127Z,3.53
2023-03-29T00:26:20.714Z,3.53
2023-03-29T00:28:53.274Z,3.50
2023-03-29T00:31:20.055Z,3.48
2023-03-29T00:33:47.089Z,3.54
2023-03-29T00:36:14.667Z,3.47
2023-03-29T00:38:41.289Z,3.43
2023-03-29T00:41:15.309Z,3.41
2023-03-29T00:44:03.028Z,3.44
2023-03-29T00:46:37.280Z,3.46
2023-03-29T00:49:20.353Z,3.46
2023-03-29T00:51:52.644Z,3.47
2023-03-29T00:54:21.107Z,3.45
2023-03-29T00:57:01.920Z,3.54
2023-03-29T00:59:37.473Z,3.49
2023-03-29T01:02:14.563Z,3.60
2023-03-29T01:04:53.635Z,3.54
2023-03-29T01:07:23.183Z,3.48
2023-03-29T01:09:57.008Z,3.47
2023-03-29T01:12:29.667Z,3.45
2023-03-29T01:15:06.501Z,3.54
2023-03-29T01:17:33.213Z,3.46
2023-03-29T01:20:13.978Z,3.36
2023-03-29T01:23:14.501Z,3.37
2023-03-29T01:26:10.992Z,3.42
2023-03-29T01:28:46.906Z,3.33
2023-03-29T01:31:22.970Z,3.31
2023-03-29T01:33:53.718Z,3.42
2023-03-29T01:36:29.261Z,3.39
2023-03-29T01:39:12.469Z,3.31
2023-03-29T01:42:02.335Z,3.37
2023-03-29T01:44:59.581Z,3.36
2023-03-29T01:48:08.187Z,3.35
2023-03-29T01:50:43.200Z,3.40
2023-03-29T01:53:39.272Z,3.42
2023-03-29T01:56:12.490Z,3.30
2023-03-29T01:58:46.371Z,3.28
2023-03-29T02:01:18.540Z,3.29
2023-03-29T02:03:50.791Z,3.26
2023-03-29T02:06:21.215Z,3.27
2023-03-29T02:08:50.184Z,3.25
2023-03-29T02:11:19.942Z,3.30
2023-03-29T02:13:51.842Z,3.30
2023-03-29T02:16:19.600Z,3.27
2023-03-29T02:18:55.788Z,3.39
2023-03-29T02:25:12.995Z,3.34
2023-03-29T02:27:58.193Z,3.37
2023-03-29T02:30:33.810Z,3.43
2023-03-29T02:33:24.187Z,3.43
2023-03-29T02:40:19.338Z,3.41
2023-03-29T02:43:12.067Z,3.43
2023-03-29T02:46:18.094Z,3.45
2023-03-29T02:49:00.008Z,3.51
2023-03-29T02:52:08.410Z,3.44
2023-03-29T03:01:06.018Z,3.44
2023-03-29T03:03:52.070Z,3.43
2023-03-29T03:09:14.442Z,3.47
2023-03-29T03:11:52.021Z,3.47
2023-03-29T03:15:43.223Z,3.36
2023-03-29T03:18:01.752Z,3.24
2023-03-29T03:20:31.463Z,3.37
2023-03-29T03:23:03.785Z,3.38
2023-03-29T03:25:30.471Z,3.28
2023-03-29T03:27:59.717Z,3.32
2023-03-29T03:30:29.670Z,3.29
2023-03-29T03:33:02.138Z,3.38
2023-03-29T03:35:36.036Z,3.32
2023-03-29T03:40:59.253Z,3.34
2023-03-29T04:06:32.774Z,3.36
2023-03-29T04:08:59.706Z,3.34
2023-03-29T04:11:26.131Z,3.31
2023-03-29T04:13:52.704Z,3.23
2023-03-29T04:16:19.146Z,3.33
2023-03-29T04:18:45.803Z,3.23
2023-03-29T04:21:12.490Z,3.19
2023-03-29T04:23:38.901Z,3.23
2023-03-29T04:26:06.484Z,3.23
2023-03-29T04:28:32.922Z,3.28
2023-03-29T04:31:02.411Z,3.26
2023-03-29T04:33:29.399Z,3.20
2023-03-29T04:35:59.075Z,3.29
2023-03-29T04:38:26.680Z,3.30
2023-03-29T04:40:55.125Z,3.31
2023-03-29T04:43:23.553Z,3.31
2023-03-29T04:45:50.106Z,3.35
2023-03-29T04:48:17.025Z,3.31
2023-03-29T04:50:46.729Z,3.32
2023-03-29T04:53:13.183Z,3.32
2023-03-29T04:55:40.959Z,3.26
2023-03-29T04:58:07.469Z,3.26
2023-03-29T05:00:34.050Z,3.31
2023-03-29T05:03:00.769Z,3.43
2023-03-29T05:05:27.206Z,3.35
2023-03-29T05:07:57.091Z,3.35
2023-03-29T05:10:26.125Z,3.28
2023-03-29T05:12:53.916Z,3.21
2023-03-29T05:15:21.369Z,3.28
2023-03-29T05:17:48.812Z,3.40
2023-03-29T05:20:16.159Z,3.41
2023-03-29T05:22:42.614Z,3.40
2023-03-29T05:25:11.446Z,3.41
2023-03-29T05:27:37.824Z,3.43
2023-03-29T05:30:04.652Z,3.52
2023-03-29T05:32:31.240Z,3.42
2023-03-29T05:34:57.809Z,3.39
2023-03-29T05:37:24.217Z,3.38
2023-03-29T05:39:50.622Z,3.41
2023-03-29T05:42:19.222Z,3.37
2023-03-29T05:44:45.667Z,3.51
2023-03-29T05:47:12.110Z,3.49
2023-03-29T05:49:38.596Z,3.52
2023-03-29T05:52:06.705Z,3.51
2023-03-29T05:54:33.335Z,3.55
2023-03-29T05:56:59.832Z,3.73
2023-03-29T05:59:28.509Z,3.67
2023-03-29T06:01:54.985Z,3.66
2023-03-29T06:04:21.696Z,3.73
2023-03-29T06:06:48.610Z,3.75
2023-03-29T06:09:15.540Z,3.73
2023-03-29T06:11:41.935Z,3.77
2023-03-29T06:14:08.405Z,3.81
2023-03-29T06:16:34.995Z,3.81
2023-03-29T06:19:01.424Z,3.83
2023-03-29T06:21:28.468Z,3.83
2023-03-29T06:23:54.971Z,3.85
2023-03-29T06:26:21.576Z,3.90
2023-03-29T06:28:51.301Z,4.09
2023-03-29T06:31:19.793Z,4.05
2023-03-29T06:33:46.793Z,4.12
2023-03-29T06:36:16.111Z,4.30
2023-03-29T06:38:45.399Z,4.22
2023-03-29T06:41:11.882Z,4.24
2023-03-29T06:43:38.897Z,4.23
2023-03-29T06:46:11.708Z,4.22
2023-03-29T06:48:39.146Z,4.26
2023-03-29T06:51:07.548Z,4.27
2023-03-29T06:53:34.716Z,4.28
2023-03-29T06:56:05.309Z,4.40
2023-03-29T06:58:31.825Z,4.50
2023-03-29T07:01:05.398Z,4.53
2023-03-29T07:03:34.923Z,4.50
2023-03-29T07:06:04.360Z,4.58
2023-03-29T07:08:31.728Z,4.61
2023-03-29T07:10:59.306Z,4.75
2023-03-29T07:13:26.264Z,5.00
2023-03-29T07:15:52.831Z,5.05
2023-03-29T07:18:19.797Z,5.00
2023-03-29T07:20:47.635Z,4.93
2023-03-29T07:23:14.112Z,5.03
2023-03-29T07:25:41.092Z,5.19
2023-03-29T07:28:07.643Z,5.16
2023-03-29T07:30:34.589Z,5.34
2023-03-29T07:33:01.212Z,5.53
2023-03-29T07:35:28.456Z,5.57
2023-03-29T07:37:55.879Z,5.69
2023-03-29T07:40:26.294Z,5.77
2023-03-29T07:42:55.156Z,5.79
2023-03-29T07:45:26.750Z,5.96
2023-03-29T07:47:58.024Z,6.18
2023-03-29T07:50:25.324Z,6.37
2023-03-29T07:52:52.117Z,6.51
2023-03-29T07:55:22.081Z,6.73
2023-03-29T07:57:49.683Z,7.07
2023-03-29T08:00:17.196Z,7.16
2023-03-29T08:02:45.510Z,7.33
2023-03-29T08:05:15.370Z,7.39
2023-03-29T08:07:44.550Z,7.64
2023-03-29T08:10:16.020Z,7.98
2023-03-29T08:12:43.320Z,8.57
2023-03-29T08:15:11.014Z,8.88
2023-03-29T08:17:40.180Z,9.77
2023-03-29T08:20:10.734Z,9.76
2023-03-29T08:22:37.887Z,9.96
2023-03-29T08:25:05.557Z,10.47
2023-03-29T08:27:32.266Z,10.96
2023-03-29T08:29:59.198Z,11.33
2023-03-29T08:32:25.878Z,11.96
2023-03-29T08:34:52.651Z,12.14
2023-03-29T08:37:20.165Z,12.63
2023-03-29T08:39:46.655Z,12.78
2023-03-29T08:42:38.628Z,12.87
2023-03-29T08:45:23.471Z,12.97
2023-03-29T08:48:18.616Z,12.95
2023-03-29T08:50:52.855Z,12.69
2023-03-29T08:53:44.108Z,13.11
2023-03-29T08:56:15.821Z,12.71
2023-03-29T08:58:43.352Z,12.92
2023-03-29T09:01:11.484Z,12.67
2023-03-29T09:03:45.226Z,13.03
2023-03-29T09:06:12.863Z,12.36
2023-03-29T09:08:43.755Z,12.66
2023-03-29T09:11:46.179Z,12.72
2023-03-29T09:14:57.308Z,13.09
2023-03-29T09:17:35.920Z,12.72
2023-03-29T09:20:24.194Z,13.02
2023-03-29T09:23:02.216Z,13.16
2023-03-29T09:25:58.063Z,12.32
2023-03-29T09:28:38.298Z,12.84
2023-03-29T09:31:18.779Z,12.97
2023-03-29T09:33:56.213Z,12.64
2023-03-29T09:36:52.439Z,12.51
2023-03-29T09:39:21.194Z,12.54
2023-03-29T09:41:54.928Z,12.85
2023-03-29T09:44:31.605Z,12.72
2023-03-29T09:47:03.471Z,12.53
2023-03-29T09:49:36.000Z,12.36
2023-03-29T09:52:09.141Z,12.46
2023-03-29T09:54:35.868Z,12.44
2023-03-29T09:57:03.233Z,12.69
2023-03-29T09:59:30.606Z,12.56
2023-03-29T10:02:09.164Z,12.71
2023-03-29T10:04:42.955Z,12.25
2023-03-29T10:07:23.765Z,12.37
2023-03-29T10:09:52.645Z,12.72
2023-03-29T10:12:19.937Z,12.63
2023-03-29T10:14:52.193Z,12.61
2023-03-29T10:17:22.286Z,12.60
2023-03-29T10:20:12.085Z,12.62
2023-03-29T10:22:40.504Z,12.52
2023-03-29T10:25:13.902Z,12.13
2023-03-29T10:27:43.558Z,12.43
2023-03-29T10:30:13.092Z,12.66
2023-03-29T10:32:40.670Z,12.69
2023-03-29T10:35:14.840Z,12.71
2023-03-29T10:37:43.816Z,12.87
2023-03-29T10:40:27.048Z,12.72
2023-03-29T10:42:57.776Z,12.54
2023-03-29T10:45:27.782Z,12.66
2023-03-29T10:47:58.443Z,12.68
2023-03-29T10:50:34.280Z,12.74
2023-03-29T10:53:06.565Z,12.64
2023-03-29T10:55:41.019Z,12.78
2023-03-29T10:58:31.490Z,12.88
2023-03-29T11:00:58.328Z,12.78
2023-03-29T11:03:49.768Z,12.95
2023-03-29T11:06:28.143Z,13.15
2023-03-29T11:08:58.774Z,13.19
2023-03-29T11:12:04.413Z,13.24
2023-03-29T11:14:52.741Z,13.26
2023-03-29T11:17:51.841Z,13.33
2023-03-29T11:20:31.891Z,13.44
2023-03-29T11:23:18.079Z,13.43
2023-03-29T11:25:57.357Z,13.46
2023-03-29T11:28:28.548Z,13.17
2023-03-29T11:31:05.586Z,13.44
2023-03-29T11:34:04.453Z,13.21
2023-03-29T11:36:33.528Z,13.22
2023-03-29T11:39:16.754Z,13.30
2023-03-29T11:41:48.636Z,13.27
2023-03-29T11:44:21.054Z,13.33
2023-03-29T11:47:12.769Z,13.55
2023-03-29T11:49:45.428Z,13.54
2023-03-29T11:52:38.720Z,13.77
2023-03-29T11:55:19.678Z,13.85
2023-03-29T11:57:59.880Z,13.93
2023-03-29T12:00:36.383Z,13.73
2023-03-29T12:03:14.230Z,13.76
2023-03-29T12:05:44.096Z,13.92
2023-03-29T12:08:23.631Z,14.23
2023-03-29T12:10:56.977Z,14.02
2023-03-29T12:13:32.194Z,14.02
2023-03-29T12:16:16.579Z,14.02
2023-03-29T12:18:47.617Z,14.14
2023-03-29T12:21:18.776Z,14.17
2023-03-29T12:23:46.374Z,14.39
2023-03-29T12:26:25.420Z,14.41
2023-03-29T12:29:16.861Z,14.39
2023-03-29T12:32:11.468Z,14.34
2023-03-29T12:34:56.635Z,14.21
2023-03-29T12:37:47.031Z,14.31
2023-03-29T12:40:15.505Z,14.20
2023-03-29T12:42:52.817Z,14.31
2023-03-29T12:45:32.005Z,14.41
2023-03-29T12:48:00.245Z,14.56
2023-03-29T12:50:34.189Z,14.42
2023-03-29T12:53:24.754Z,14.33
2023-03-29T12:56:08.545Z,14.33
2023-03-29T12:58:38.664Z,14.33
2023-03-29T13:01:24.033Z,14.25
2023-03-29T13:04:11.518Z,14.18
2023-03-29T13:06:46.939Z,14.18
2023-03-29T13:09:46.811Z,14.22
2023-03-29T13:12:27.170Z,14.03
2023-03-29T13:15:16.663Z,14.06
2023-03-29T13:18:20.993Z,14.02
2023-03-29T13:20:57.236Z,14.10
2023-03-29T13:23:24.042Z,14.20
2023-03-29T13:26:24.986Z,14.17
2023-03-29T13:29:22.474Z,14.27
2023-03-29T13:32:18.480Z,14.18
2023-03-29T13:34:54.056Z,14.38
2023-03-29T13:37:42.481Z,14.24
2023-03-29T13:40:31.709Z,14.19
2023-03-29T13:43:29.324Z,14.24
2023-03-29T13:45:58.788Z,14.20
2023-03-29T13:48:28.421Z,14.27
2023-03-29T13:51:07.933Z,14.20
2023-03-29T13:53:40.191Z,13.94
2023-03-29T13:56:15.306Z,13.83
2023-03-29T13:58:46.606Z,13.77
2023-03-29T14:01:31.260Z,13.89
2023-03-29T14:03:59.184Z,13.90
2023-03-29T14:06:29.678Z,14.00
2023-03-29T14:08:56.483Z,13.80
2023-03-29T14:11:29.138Z,13.89
2023-03-29T14:14:00.105Z,13.60
2023-03-29T14:16:29.667Z,13.87
2023-03-29T14:19:07.683Z,13.95
2023-03-29T14:21:37.479Z,14.02
2023-03-29T14:24:26.958Z,14.04
2023-03-29T14:26:55.224Z,14.04
2023-03-29T14:29:35.878Z,14.02
2023-03-29T14:32:20.987Z,14.08
2023-03-29T14:34:52.077Z,14.18
2023-03-29T14:37:42.459Z,14.26
2023-03-29T14:40:35.674Z,14.26
2023-03-29T14:43:34.173Z,14.26
2023-03-29T14:46:09.425Z,14.31
2023-03-29T14:48:40.574Z,14.30
2023-03-29T14:51:30.520Z,14.19
2023-03-29T14:54:04.630Z,14.32
2023-03-29T14:56:37.726Z,14.27
2023-03-29T14:59:32.583Z,14.40
2023-03-29T15:02:14.909Z,14.28
2023-03-29T15:04:53.342Z,14.43
2023-03-29T15:07:33.303Z,14.50
2023-03-29T15:10:04.874Z,14.38
2023-03-29T15:12:32.967Z,14.24
2023-03-29T15:15:07.807Z,14.44
2023-03-29T15:17:58.504Z,14.35
2023-03-29T15:20:36.035Z,14.37
2023-03-29T15:23:22.858Z,14.26
2023-03-29T15:26:07.644Z,14.10
2023-03-29T15:28:52.102Z,13.97
2023-03-29T15:31:28.225Z,13.79
2023-03-29T15:34:11.850Z,13.54
2023-03-29T15:36:48.303Z,13.45
2023-03-29T15:39:22.039Z,13.30
2023-03-29T15:41:58.863Z,13.37
2023-03-29T15:44:42.652Z,13.27
2023-03-29T15:47:17.049Z,13.30
2023-03-29T15:49:51.133Z,13.36
2023-03-29T15:52:26.991Z,13.31
2023-03-29T15:55:03.872Z,13.30
2023-03-29T15:57:51.884Z,13.35
2023-03-29T16:06:39.009Z,13.39
2023-03-29T16:17:03.993Z,13.35
2023-03-29T16:41:46.913Z,13.07
2023-03-29T17:08:03.811Z,12.42
2023-03-29T17:11:40.919Z,12.42
2023-03-29T17:14:50.302Z,12.33
2023-03-29T17:17:32.035Z,12.25
2023-03-29T17:20:22.840Z,12.24
2023-03-29T17:22:52.739Z,12.18
2023-03-29T17:25:34.038Z,12.10
2023-03-29T17:28:07.846Z,11.92
2023-03-29T17:30:43.542Z,11.86
2023-03-29T17:33:16.449Z,11.79
2023-03-29T17:36:04.308Z,11.75
2023-03-29T17:38:44.570Z,11.71
2023-03-29T17:41:58.094Z,11.58
2023-03-29T17:44:44.324Z,11.49
2023-03-29T17:47:15.209Z,11.47
2023-03-29T17:49:47.868Z,11.33
2023-03-29T17:52:31.056Z,11.32
2023-03-29T17:55:21.505Z,11.24
2023-03-29T18:22:07.020Z,11.09
2023-03-29T18:25:21.395Z,11.12
2023-03-29T18:38:06.638Z,11.12
2023-03-29T18:40:56.217Z,11.05
2023-03-29T18:47:07.666Z,11.05
2023-03-29T18:49:41.890Z,11.00
2023-03-29T18:52:18.062Z,10.95
2023-03-29T18:55:09.865Z,10.92
2023-03-29T18:57:50.351Z,10.94
2023-03-29T19:00:36.893Z,10.96
2023-03-29T19:03:12.629Z,11.05
2023-03-29T19:05:49.558Z,11.08
2023-03-29T19:11:34.816Z,11.16
2023-03-29T19:14:01.579Z,11.15
2023-03-29T19:16:28.014Z,11.19
2023-03-29T19:18:56.785Z,11.26
2023-03-29T19:21:23.261Z,11.36
2023-03-29T19:23:52.935Z,11.36
2023-03-29T19:26:19.327Z,11.37
2023-03-29T19:28:46.049Z,11.38
2023-03-29T19:31:13.189Z,11.40
2023-03-29T19:33:40.752Z,11.45
2023-03-29T19:36:07.655Z,11.49
2023-03-29T19:38:34.290Z,11.45
2023-03-29T19:41:01.049Z,11.52
2023-03-29T19:43:27.494Z,11.51
2023-03-29T19:45:53.902Z,11.51
2023-03-29T19:48:22.949Z,11.45
2023-03-29T19:50:50.253Z,11.43
2023-03-29T19:53:16.883Z,11.47
2023-03-29T19:55:45.020Z,11.52
2023-03-29T19:58:14.444Z,11.57
2023-03-29T20:00:41.751Z,11.52
2023-03-29T20:03:12.420Z,11.56
2023-03-29T20:05:39.012Z,11.55
2023-03-29T20:08:09.300Z,11.57
2023-03-29T20:10:36.352Z,11.53
2023-03-29T20:13:05.657Z,11.37
2023-03-29T20:15:32.193Z,11.13
2023-03-29T20:18:01.666Z,11.07
2023-03-29T20:20:29.610Z,10.99
2023-03-29T20:23:04.644Z,10.94
2023-03-29T20:25:34.302Z,10.79
2023-03-29T20:28:00.710Z,10.71
2023-03-29T20:30:27.267Z,10.66
2023-03-29T20:32:59.732Z,10.62
2023-03-29T20:35:29.223Z,10.65
2023-03-29T20:37:56.047Z,10.59
2023-03-29T20:40:22.799Z,10.65
2023-03-29T20:42:49.246Z,10.60
2023-03-29T20:45:18.792Z,10.55
2023-03-29T20:48:00.298Z,10.60
2023-03-29T20:50:26.803Z,10.68
2023-03-29T20:52:56.473Z,10.65
2023-03-29T20:55:23.893Z,10.69
2023-03-29T20:57:57.800Z,10.68
2023-03-29T21:00:25.715Z,10.71
2023-03-29T21:02:58.538Z,10.74
2023-03-29T21:05:30.146Z,10.82
2023-03-29T21:07:57.005Z,10.78
2023-03-29T21:10:24.747Z,10.65
2023-03-29T21:12:54.264Z,10.65
2023-03-29T21:15:20.843Z,10.65
2023-03-29T21:17:47.740Z,10.65
2023-03-29T21:20:15.330Z,10.56
2023-03-29T21:22:45.604Z,10.61
2023-03-29T21:25:16.911Z,10.69
2023-03-29T21:27:43.366Z,10.81
2023-03-29T21:30:13.686Z,10.72
2023-03-29T21:32:40.428Z,10.78
2023-03-29T21:35:07.675Z,10.70
2023-03-29T21:37:34.083Z,10.76
2023-03-29T21:40:00.516Z,10.73
2023-03-29T21:42:26.947Z,10.71
2023-03-29T21:44:53.322Z,10.71
2023-03-29T21:47:19.732Z,10.64
2023-03-29T21:49:46.134Z,10.63
2023-03-29T21:52:12.566Z,10.68
2023-03-29T21:54:39.014Z,10.71
2023-03-29T21:57:05.589Z,10.63
2023-03-29T21:59:32.030Z,10.65
2023-03-29T22:01:58.457Z,10.66
2023-03-29T22:04:35.970Z,10.67
2023-03-29T22:07:04.121Z,10.68
2023-03-29T22:09:32.928Z,10.66
2023-03-29T22:11:59.762Z,10.63
2023-03-29T22:14:28.471Z,10.60
2023-03-29T22:16:55.235Z,10.64
2023-03-29T22:19:22.023Z,10.68
2023-03-29T22:21:48.723Z,10.71
2023-03-29T22:24:16.267Z,10.79
2023-03-29T22:26:44.901Z,10.84
2023-03-29T22:29:11.475Z,10.94
2023-03-29T22:31:39.381Z,10.91
2023-03-29T22:34:07.564Z,10.85
2023-03-29T22:36:36.171Z,10.95
2023-03-29T22:39:03.647Z,10.91
2023-03-29T22:41:30.412Z,10.81
2023-03-29T22:43:58.702Z,10.89
2023-03-29T22:46:26.314Z,10.81
2023-03-29T22:48:53.158Z,10.89
2023-03-29T22:51:20.149Z,10.84
2023-03-29T22:53:47.087Z,10.84
2023-03-29T22:56:15.402Z,10.88
2023-03-29T22:58:41.948Z,10.78
2023-03-29T23:01:08.907Z,10.74
2023-03-29T23:03:35.577Z,10.76
2023-03-29T23:06:02.396Z,10.77
2023-03-29T23:08:32.673Z,10.80
2023-03-29T23:10:59.845Z,10.84
2023-03-29T23:13:29.010Z,10.93
2023-03-29T23:15:58.767Z,10.91
2023-03-29T23:18:26.793Z,10.91
2023-03-29T23:20:55.461Z,10.78
2023-03-29T23:23:23.203Z,10.82
2023-03-29T23:25:51.665Z,10.83
2023-03-29T23:28:21.457Z,10.91
2023-03-29T23:30:56.858Z,10.78
2023-03-29T23:33:26.566Z,10.85
2023-03-29T23:35:53.907Z,10.86
2023-03-29T23:38:20.899Z,10.90
2023-03-29T23:40:55.164Z,10.93
2023-03-29T23:43:21.723Z,10.83
2023-03-29T23:45:48.261Z,10.89
2023-03-29T23:48:14.656Z,10.78
2023-03-29T23:50:46.323Z,10.83
2023-03-29T23:53:12.746Z,10.78
2023-03-29T23:55:39.302Z,10.85
2023-03-29T23:58:05.696Z,10.80
